Chappaquiddick Island, Massachusetts
Current Conditions -  °F | °C
As of 12:53 PM on Saturday 20 Dec 2014 (Local Time) from KMVY Reporting Station
Overcast Overcast  
Wind Chill: 33°   Ceiling: 3600
Heat Index: 39°   Visibility: 10mi
Dew Point: 30°   Wind: 8mph
Humidity: 70%   Direction: 360°N
Pressure: 30.22"   Gusts: NA
Location:  41.3788°N, 70.5416°W
Report Text: KMVY 201753Z 36007KT 10SM OVC036 04/M01 A3022 RMK AO2 SLP233 T00391011 10039 20000 55010
Loading
Personal Weather Stations






























Interactive Weather Map New forecast layout! Learn more

10-Day Weather Forecast

Advertisements
Track Severe Weather on mobile